createdAt,value
2022-10-17T00:00:22.713Z,2.80
2022-10-17T00:02:50.646Z,3.13
2022-10-17T00:05:18.917Z,2.90
2022-10-17T00:07:48.327Z,3.87
2022-10-17T00:10:16.239Z,3.20
2022-10-17T00:12:44.220Z,3.80
2022-10-17T00:15:16.223Z,3.13
2022-10-17T00:17:44.202Z,3.40
2022-10-17T00:20:13.113Z,2.93
2022-10-17T00:22:41.079Z,2.87
2022-10-17T00:25:13.540Z,3.73
2022-10-17T00:27:42.676Z,3.63
2022-10-17T00:30:14.634Z,3.40
2022-10-17T00:32:43.276Z,3.00
2022-10-17T00:35:11.769Z,3.37
2022-10-17T00:37:39.792Z,3.23
2022-10-17T00:40:09.256Z,3.10
2022-10-17T00:42:38.760Z,3.10
2022-10-17T00:45:18.990Z,3.40
2022-10-17T00:47:52.527Z,3.20
2022-10-17T00:50:21.433Z,3.77
2022-10-17T00:52:50.444Z,3.07
2022-10-17T00:55:22.821Z,3.30
2022-10-17T00:57:53.369Z,3.33
2022-10-17T01:00:22.062Z,3.33
2022-10-17T01:02:50.261Z,3.00
2022-10-17T01:05:19.461Z,3.23
2022-10-17T01:07:49.212Z,2.63
2022-10-17T01:10:17.791Z,2.80
2022-10-17T01:12:58.202Z,3.03
2022-10-17T01:15:40.034Z,3.00
2022-10-17T01:18:16.533Z,3.40
2022-10-17T01:21:10.720Z,3.30
2022-10-17T01:24:05.727Z,3.07
2022-10-17T01:26:56.310Z,2.90
2022-10-17T01:29:42.982Z,3.10
2022-10-17T01:32:18.204Z,2.80
2022-10-17T01:34:50.942Z,3.60
2022-10-17T01:37:28.736Z,2.97
2022-10-17T01:40:05.078Z,2.63
2022-10-17T01:42:38.417Z,3.10
2022-10-17T01:45:11.530Z,3.47
2022-10-17T01:47:42.634Z,3.10
2022-10-17T01:50:16.245Z,3.03
2022-10-17T01:52:47.800Z,2.90
2022-10-17T01:55:20.586Z,3.60
2022-10-17T01:57:52.616Z,2.80
2022-10-17T02:00:23.892Z,3.03
2022-10-17T02:02:56.601Z,2.93
2022-10-17T02:05:28.795Z,3.80
2022-10-17T02:07:56.793Z,3.03
2022-10-17T02:10:34.307Z,2.97
2022-10-17T02:13:10.168Z,3.50
2022-10-17T02:15:57.869Z,3.20
2022-10-17T02:18:42.773Z,3.03
2022-10-17T02:21:19.943Z,2.80
2022-10-17T02:23:54.735Z,3.20
2022-10-17T02:26:30.073Z,3.43
2022-10-17T02:29:07.492Z,3.73
2022-10-17T02:31:41.089Z,3.20
2022-10-17T02:34:16.802Z,3.10
2022-10-17T02:36:48.634Z,3.10
2022-10-17T02:39:17.387Z,3.40
2022-10-17T02:41:46.461Z,2.80
2022-10-17T02:44:14.850Z,3.20
2022-10-17T02:46:46.125Z,3.03
2022-10-17T02:49:19.894Z,2.97
2022-10-17T02:51:53.345Z,3.10
2022-10-17T02:54:25.472Z,3.27
2022-10-17T02:56:58.719Z,3.70
2022-10-17T02:59:29.732Z,3.77
2022-10-17T03:01:57.968Z,4.00
2022-10-17T03:04:27.234Z,3.60
2022-10-17T03:06:55.377Z,3.33
2022-10-17T03:09:23.342Z,3.10
2022-10-17T03:11:51.301Z,3.57
2022-10-17T03:14:19.258Z,3.60
2022-10-17T03:16:47.321Z,3.33
2022-10-17T03:19:15.250Z,3.37
2022-10-17T03:21:44.512Z,3.83
2022-10-17T03:24:12.501Z,3.03
2022-10-17T03:26:40.515Z,4.60
2022-10-17T03:29:08.551Z,3.20
2022-10-17T03:31:37.374Z,2.93
2022-10-17T03:34:05.304Z,3.90
2022-10-17T03:36:33.260Z,3.47
2022-10-17T03:39:02.540Z,2.90
2022-10-17T03:41:30.491Z,3.90
2022-10-17T03:43:58.430Z,3.30
2022-10-17T03:46:26.373Z,4.10
2022-10-17T03:48:54.622Z,3.73
2022-10-17T03:51:22.932Z,3.20
2022-10-17T03:53:50.906Z,3.30
2022-10-17T03:56:22.407Z,3.30
2022-10-17T03:58:50.616Z,3.40
2022-10-17T04:01:19.942Z,3.50
2022-10-17T04:03:51.638Z,2.93
2022-10-17T04:06:20.730Z,3.23
2022-10-17T04:08:48.643Z,2.70
2022-10-17T04:11:18.581Z,2.83
2022-10-17T04:13:47.851Z,3.17
2022-10-17T04:16:17.527Z,2.90
2022-10-17T04:18:45.810Z,3.77
2022-10-17T04:21:14.057Z,3.60
2022-10-17T04:23:41.972Z,3.60
2022-10-17T04:26:09.902Z,3.40
2022-10-17T04:31:15.241Z,3.63
2022-10-17T04:33:44.612Z,3.10
2022-10-17T04:36:14.264Z,3.40
2022-10-17T04:38:42.339Z,3.60
2022-10-17T04:41:13.342Z,3.40
2022-10-17T04:43:44.395Z,3.27
2022-10-17T04:46:16.754Z,3.40
2022-10-17T04:48:44.840Z,3.47
2022-10-17T04:51:15.835Z,2.87
2022-10-17T04:53:44.552Z,3.60
2022-10-17T04:56:14.275Z,3.50
2022-10-17T04:58:43.195Z,3.27
2022-10-17T05:01:13.334Z,3.53
2022-10-17T05:03:43.089Z,3.70
2022-10-17T05:06:12.823Z,4.10
2022-10-17T05:08:40.954Z,4.23
2022-10-17T05:11:20.965Z,3.40
2022-10-17T05:13:52.423Z,3.90
2022-10-17T05:16:20.703Z,3.43
2022-10-17T05:18:52.956Z,3.33
2022-10-17T05:21:22.884Z,3.80
2022-10-17T05:23:51.463Z,3.80
2022-10-17T05:26:19.619Z,3.37
2022-10-17T05:28:47.735Z,3.30
2022-10-17T05:31:16.127Z,3.03
2022-10-17T05:33:44.072Z,3.47
2022-10-17T05:36:13.418Z,3.30
2022-10-17T05:38:41.404Z,3.47
2022-10-17T05:41:10.990Z,4.17
2022-10-17T05:43:38.951Z,4.00
2022-10-17T05:46:07.682Z,4.27
2022-10-17T05:48:36.397Z,5.17
2022-10-17T05:51:07.150Z,6.47
2022-10-17T05:53:38.469Z,6.83
2022-10-17T05:56:08.952Z,5.40
2022-10-17T05:58:56.205Z,6.00
2022-10-17T06:01:25.440Z,5.43
2022-10-17T06:03:53.542Z,6.17
2022-10-17T06:06:21.757Z,4.93
2022-10-17T06:08:51.048Z,4.20
2022-10-17T06:11:18.938Z,5.13
2022-10-17T06:13:46.872Z,4.93
2022-10-17T06:16:14.828Z,4.70
2022-10-17T06:18:42.788Z,4.30
2022-10-17T06:21:13.078Z,3.87
2022-10-17T06:23:40.995Z,4.20
2022-10-17T06:26:10.763Z,4.60
2022-10-17T06:28:38.896Z,4.33
2022-10-17T06:31:08.008Z,3.57
2022-10-17T06:33:36.198Z,3.93
2022-10-17T06:36:04.504Z,4.13
2022-10-17T06:38:32.487Z,4.10
2022-10-17T06:41:08.280Z,4.30
2022-10-17T06:43:38.102Z,4.77
2022-10-17T06:46:07.034Z,3.73
2022-10-17T06:48:35.159Z,4.57
2022-10-17T06:51:04.544Z,4.07
2022-10-17T06:53:34.303Z,4.10
2022-10-17T06:56:04.267Z,4.30
2022-10-17T06:58:34.138Z,4.13
2022-10-17T07:01:05.305Z,4.00
2022-10-17T07:03:34.035Z,4.57
2022-10-17T07:06:02.015Z,4.57
2022-10-17T07:08:29.918Z,3.57
2022-10-17T07:10:58.726Z,4.00
2022-10-17T07:13:26.651Z,4.30
2022-10-17T07:18:27.636Z,4.13
2022-10-17T07:20:56.508Z,5.17
2022-10-17T07:23:24.513Z,3.97
2022-10-17T07:25:52.505Z,3.67
2022-10-17T07:28:21.088Z,4.03
2022-10-17T07:30:52.021Z,3.83
2022-10-17T07:33:22.479Z,4.00
2022-10-17T07:35:53.252Z,4.93
2022-10-17T07:38:21.140Z,4.00
2022-10-17T07:40:55.496Z,4.23
2022-10-17T07:43:23.846Z,4.57
2022-10-17T07:45:52.038Z,3.97
2022-10-17T07:48:20.636Z,3.80
2022-10-17T07:50:49.111Z,3.67
2022-10-17T07:53:18.798Z,3.43
2022-10-17T07:55:47.865Z,3.13
2022-10-17T07:58:16.365Z,3.10
2022-10-17T08:00:48.490Z,2.73
2022-10-17T08:03:16.669Z,3.10
2022-10-17T08:05:44.610Z,3.50
2022-10-17T08:08:12.520Z,3.20
2022-10-17T08:10:41.796Z,3.73
2022-10-17T08:13:09.699Z,4.17
2022-10-17T08:15:39.807Z,2.70
2022-10-17T08:18:07.828Z,3.37
2022-10-17T08:20:35.787Z,3.20
2022-10-17T08:23:03.690Z,3.50
2022-10-17T08:25:31.998Z,3.53
2022-10-17T08:28:01.404Z,3.00
2022-10-17T08:30:30.704Z,2.70
2022-10-17T08:32:58.667Z,11.80
2022-10-17T08:35:26.639Z,8.60
2022-10-17T08:37:54.690Z,4.93
2022-10-17T08:40:25.687Z,2.73
2022-10-17T08:43:16.338Z,2.50
2022-10-17T08:45:49.634Z,2.77
2022-10-17T08:48:20.647Z,2.27
2022-10-17T08:50:52.755Z,2.30
2022-10-17T08:53:26.686Z,2.07
2022-10-17T08:55:55.784Z,2.57
2022-10-17T08:58:29.036Z,2.63
2022-10-17T09:01:08.022Z,2.57
2022-10-17T09:03:53.419Z,2.50
2022-10-17T09:06:29.823Z,2.27
2022-10-17T09:09:24.844Z,2.70
2022-10-17T09:12:04.078Z,2.30
2022-10-17T09:14:44.667Z,2.50
2022-10-17T09:17:22.921Z,2.13
2022-10-17T09:19:58.753Z,2.50
2022-10-17T09:22:31.267Z,2.50
2022-10-17T09:25:03.281Z,2.50
2022-10-17T09:27:36.411Z,2.50
2022-10-17T09:30:43.577Z,2.23
2022-10-17T09:33:23.342Z,2.30
2022-10-17T09:36:03.692Z,2.33
2022-10-17T09:38:39.381Z,2.77
2022-10-17T09:41:39.121Z,2.43
2022-10-17T09:44:14.935Z,2.13
2022-10-17T09:46:54.028Z,1.90
2022-10-17T09:49:26.401Z,1.87
2022-10-17T09:51:54.436Z,2.30
2022-10-17T09:54:27.501Z,2.60
2022-10-17T09:57:00.150Z,2.40
2022-10-17T09:59:36.099Z,2.43
2022-10-17T10:02:20.879Z,2.00
2022-10-17T10:05:05.651Z,2.60
2022-10-17T10:07:36.596Z,2.27
2022-10-17T10:10:07.086Z,2.40
2022-10-17T10:12:37.966Z,1.80
2022-10-17T10:15:32.250Z,1.93
2022-10-17T10:18:01.693Z,1.70
2022-10-17T10:20:33.079Z,1.50
2022-10-17T10:23:12.160Z,2.53
2022-10-17T10:25:49.848Z,1.90
2022-10-17T10:28:19.126Z,2.03
2022-10-17T10:30:51.403Z,2.33
2022-10-17T10:33:22.939Z,2.27
2022-10-17T10:35:58.182Z,2.27
2022-10-17T10:38:26.510Z,2.40
2022-10-17T10:40:56.618Z,1.77
2022-10-17T10:43:33.207Z,1.93
2022-10-17T10:46:01.965Z,2.13
2022-10-17T10:48:35.112Z,1.93
2022-10-17T10:51:08.961Z,2.73
2022-10-17T10:53:45.225Z,2.07
2022-10-17T10:56:19.359Z,2.10
2022-10-17T10:58:55.734Z,1.90
2022-10-17T11:01:30.795Z,2.33
2022-10-17T11:04:24.409Z,1.97
2022-10-17T11:06:56.440Z,1.93
2022-10-17T11:09:33.692Z,1.73
2022-10-17T11:12:08.800Z,2.00
2022-10-17T11:14:46.780Z,2.00
2022-10-17T11:17:26.698Z,2.10
2022-10-17T11:20:04.575Z,1.77
2022-10-17T11:22:35.330Z,2.20
2022-10-17T11:25:11.330Z,2.00
2022-10-17T11:27:39.687Z,1.80
2022-10-17T11:30:13.551Z,1.80
2022-10-17T11:32:44.920Z,1.83
2022-10-17T11:35:21.389Z,1.73
2022-10-17T11:37:55.018Z,1.73
2022-10-17T11:40:29.878Z,1.87
2022-10-17T11:43:01.122Z,2.03
2022-10-17T11:45:34.440Z,1.97
2022-10-17T11:48:07.353Z,2.27
2022-10-17T11:53:31.089Z,1.80
2022-10-17T11:56:01.885Z,1.67
2022-10-17T11:58:37.649Z,1.70
2022-10-17T12:01:14.464Z,2.50
2022-10-17T12:03:53.714Z,1.70
2022-10-17T12:06:40.089Z,1.53
2022-10-17T12:09:18.922Z,1.60
2022-10-17T12:11:53.978Z,2.20
2022-10-17T12:14:43.187Z,1.30
2022-10-17T12:17:32.969Z,1.60
2022-10-17T12:20:27.311Z,1.70
2022-10-17T12:22:58.756Z,1.50
2022-10-17T12:25:31.410Z,1.80
2022-10-17T12:28:17.327Z,1.47
2022-10-17T12:30:58.038Z,1.27
2022-10-17T12:33:32.840Z,1.60
2022-10-17T12:36:37.786Z,1.60
2022-10-17T12:39:51.514Z,2.20
2022-10-17T12:42:49.307Z,2.20
2022-10-17T12:45:51.485Z,2.30
2022-10-17T12:49:03.239Z,2.20
2022-10-17T12:51:43.295Z,2.40
2022-10-17T12:54:13.788Z,2.43
2022-10-17T12:56:44.529Z,2.30
2022-10-17T12:59:18.413Z,2.43
2022-10-17T13:01:49.119Z,1.97
2022-10-17T13:04:17.824Z,2.60
2022-10-17T13:06:48.416Z,1.90
2022-10-17T13:09:25.452Z,2.23
2022-10-17T13:11:54.411Z,1.70
2022-10-17T13:14:25.561Z,2.00
2022-10-17T13:16:55.771Z,2.53
2022-10-17T13:19:25.546Z,1.73
2022-10-17T13:21:56.052Z,1.50
2022-10-17T13:24:29.750Z,2.10
2022-10-17T13:26:58.115Z,1.57
2022-10-17T13:29:29.709Z,2.40
2022-10-17T13:32:01.338Z,2.03
2022-10-17T13:34:29.934Z,2.20
2022-10-17T13:36:59.903Z,2.17
2022-10-17T13:39:52.485Z,1.80
2022-10-17T13:42:28.382Z,2.30
2022-10-17T13:45:01.559Z,1.90
2022-10-17T13:47:33.352Z,2.40
2022-10-17T13:50:01.956Z,1.90
2022-10-17T13:52:31.740Z,2.27
2022-10-17T13:55:11.086Z,2.10
2022-10-17T13:57:40.470Z,1.80
2022-10-17T14:00:20.250Z,2.30
2022-10-17T14:02:49.187Z,2.23
2022-10-17T14:05:19.729Z,2.20
2022-10-17T14:08:10.455Z,1.90
2022-10-17T14:10:41.428Z,2.03
2022-10-17T14:13:20.216Z,2.03
2022-10-17T14:15:50.381Z,1.90
2022-10-17T14:18:21.422Z,1.90
2022-10-17T14:21:32.037Z,2.03
2022-10-17T14:23:40.867Z,2.50
2022-10-17T14:26:17.885Z,2.70
2022-10-17T14:28:48.666Z,1.83
2022-10-17T14:31:29.728Z,1.90
2022-10-17T14:33:58.514Z,2.33
2022-10-17T14:36:35.731Z,1.83
2022-10-17T14:39:07.037Z,2.30
2022-10-17T14:41:43.854Z,2.47
2022-10-17T14:44:21.646Z,2.60
2022-10-17T14:46:55.534Z,2.70
2022-10-17T14:49:29.687Z,2.67
2022-10-17T14:52:24.571Z,2.13
2022-10-17T14:54:52.522Z,2.03
2022-10-17T14:57:25.040Z,2.13
2022-10-17T14:59:54.825Z,2.57
2022-10-17T15:02:25.438Z,2.20
2022-10-17T15:04:53.756Z,2.00
2022-10-17T15:07:22.146Z,1.90
2022-10-17T15:09:51.947Z,1.80
2022-10-17T15:12:22.108Z,2.20
2022-10-17T15:14:54.908Z,2.33
2022-10-17T15:17:26.974Z,1.90
2022-10-17T15:19:55.636Z,1.87
2022-10-17T15:22:23.964Z,2.30
2022-10-17T15:24:52.106Z,2.47
2022-10-17T15:27:21.452Z,2.17
2022-10-17T15:29:49.552Z,1.80
2022-10-17T15:32:17.573Z,2.30
2022-10-17T15:34:46.923Z,1.80
2022-10-17T15:37:20.777Z,1.90
2022-10-17T15:39:53.307Z,1.80
2022-10-17T15:42:22.773Z,3.10
2022-10-17T15:44:50.934Z,3.20
2022-10-17T15:47:25.353Z,2.50
2022-10-17T15:49:55.609Z,2.87
2022-10-17T15:52:24.456Z,3.03
2022-10-17T15:54:53.086Z,2.33
2022-10-17T15:57:23.631Z,2.97
2022-10-17T15:59:52.930Z,2.93
2022-10-17T16:02:22.608Z,3.20
2022-10-17T16:04:51.999Z,2.73
2022-10-17T16:07:21.992Z,3.90
2022-10-17T16:09:49.964Z,3.13
2022-10-17T16:12:20.344Z,3.20
2022-10-17T16:14:48.731Z,3.40
2022-10-17T16:17:17.918Z,2.73
2022-10-17T16:19:46.182Z,2.70
2022-10-17T16:22:32.153Z,3.10
2022-10-17T16:25:07.749Z,2.70
2022-10-17T16:27:36.626Z,2.80
2022-10-17T16:30:06.198Z,3.00
2022-10-17T16:32:34.202Z,3.97
2022-10-17T16:35:02.179Z,4.60
2022-10-17T16:37:31.521Z,4.70
2022-10-17T16:39:59.452Z,3.60
2022-10-17T16:42:27.576Z,4.23
2022-10-17T16:44:55.774Z,3.80
2022-10-17T16:47:23.668Z,3.40
2022-10-17T16:49:51.606Z,3.33
2022-10-17T16:52:19.517Z,3.73
2022-10-17T16:54:48.790Z,3.13
2022-10-17T16:57:16.747Z,3.33
2022-10-17T16:59:44.739Z,4.03
2022-10-17T17:02:13.695Z,4.50
2022-10-17T17:04:43.226Z,4.20
2022-10-17T17:07:11.116Z,3.80
2022-10-17T17:09:39.978Z,5.13
2022-10-17T17:12:09.302Z,12.07
2022-10-17T17:14:43.935Z,29.40
2022-10-17T17:17:19.532Z,15.37
2022-10-17T17:19:58.441Z,8.03
2022-10-17T17:22:26.386Z,5.27
2022-10-17T17:24:54.316Z,7.77
2022-10-17T17:27:25.078Z,7.13
2022-10-17T17:29:53.006Z,5.10
2022-10-17T17:32:20.898Z,4.80
2022-10-17T17:34:48.834Z,4.87
2022-10-17T17:37:16.712Z,3.60
2022-10-17T17:39:44.644Z,4.07
2022-10-17T17:42:12.571Z,3.50
2022-10-17T17:44:41.890Z,3.43
2022-10-17T17:47:09.913Z,3.23
2022-10-17T17:49:37.814Z,3.63
2022-10-17T17:52:05.997Z,3.03
2022-10-17T17:54:37.245Z,2.87
2022-10-17T17:57:08.129Z,3.33
2022-10-17T17:59:36.298Z,3.97
2022-10-17T18:02:06.338Z,3.47
2022-10-17T18:04:34.522Z,3.70
2022-10-17T18:07:02.564Z,3.00
2022-10-17T18:09:30.489Z,3.27
2022-10-17T18:11:58.425Z,3.33
2022-10-17T18:14:26.542Z,3.20
2022-10-17T18:16:54.473Z,3.87
2022-10-17T18:19:24.544Z,4.63
2022-10-17T18:21:52.561Z,4.00
2022-10-17T18:24:20.548Z,3.50
2022-10-17T18:26:48.513Z,4.17
2022-10-17T18:29:16.498Z,4.40
2022-10-17T18:31:44.410Z,4.00
2022-10-17T18:34:12.358Z,3.90
2022-10-17T18:36:41.652Z,4.27
2022-10-17T18:39:09.788Z,4.20
2022-10-17T18:41:37.742Z,4.13
2022-10-17T18:44:06.013Z,3.57
2022-10-17T18:46:40.173Z,3.70
2022-10-17T18:49:09.997Z,3.70
2022-10-17T18:51:38.344Z,4.70
2022-10-17T18:54:12.211Z,4.00
2022-10-17T18:56:40.231Z,3.53
2022-10-17T18:59:08.160Z,4.03
2022-10-17T19:01:36.265Z,3.93
2022-10-17T19:04:04.254Z,4.60
2022-10-17T19:06:33.163Z,3.70
2022-10-17T19:09:02.515Z,3.60
2022-10-17T19:11:33.039Z,4.10
2022-10-17T19:14:02.562Z,3.90
2022-10-17T19:16:34.807Z,3.90
2022-10-17T19:19:04.944Z,3.80
2022-10-17T19:21:33.539Z,4.63
2022-10-17T19:24:03.358Z,4.93
2022-10-17T19:26:35.025Z,4.80
2022-10-17T19:29:03.666Z,4.17
2022-10-17T19:31:33.235Z,5.03
2022-10-17T19:34:01.693Z,4.00
2022-10-17T19:36:33.612Z,5.03
2022-10-17T19:39:02.509Z,5.60
2022-10-17T19:41:31.920Z,5.90
2022-10-17T19:44:01.292Z,4.63
2022-10-17T19:46:30.665Z,4.13
2022-10-17T19:48:58.959Z,4.23
2022-10-17T19:51:28.953Z,4.87
2022-10-17T19:54:00.221Z,4.57
2022-10-17T19:56:30.067Z,4.60
2022-10-17T19:58:59.738Z,4.60
2022-10-17T20:01:29.264Z,4.33
2022-10-17T20:03:57.450Z,4.83
2022-10-17T20:06:25.736Z,4.43
2022-10-17T20:08:53.868Z,5.37
2022-10-17T20:11:23.604Z,4.60
2022-10-17T20:13:52.035Z,4.80
2022-10-17T20:16:23.514Z,5.10
2022-10-17T20:18:52.746Z,4.57
2022-10-17T20:21:22.958Z,5.70
2022-10-17T20:23:51.534Z,4.90
2022-10-17T20:26:37.170Z,5.60
2022-10-17T20:29:10.884Z,5.50
2022-10-17T20:31:41.785Z,5.20
2022-10-17T20:34:13.018Z,5.73
2022-10-17T20:36:41.165Z,5.53
2022-10-17T20:39:09.365Z,5.43
2022-10-17T20:41:37.342Z,6.83
2022-10-17T20:44:06.857Z,7.70
2022-10-17T20:46:37.853Z,6.27
2022-10-17T20:49:09.989Z,5.40
2022-10-17T20:51:37.926Z,5.27
2022-10-17T20:54:05.956Z,4.47
2022-10-17T20:56:35.275Z,6.17
2022-10-17T20:59:05.623Z,6.93
2022-10-17T21:01:35.174Z,8.03
2022-10-17T21:04:26.846Z,25.83
2022-10-17T21:06:53.600Z,12.40
2022-10-17T21:09:22.806Z,9.30
2022-10-17T21:11:54.885Z,13.80
2022-10-17T21:14:24.040Z,39.07
2022-10-17T21:16:53.066Z,19.43
2022-10-17T21:19:22.282Z,15.63
2022-10-17T21:21:50.328Z,12.97
2022-10-17T21:24:20.904Z,13.23
2022-10-17T21:26:55.084Z,16.10
2022-10-17T21:29:24.100Z,12.20
2022-10-17T21:31:52.450Z,11.73
2022-10-17T21:34:23.874Z,7.40
2022-10-17T21:36:52.187Z,8.43
2022-10-17T21:39:24.052Z,7.17
2022-10-17T21:41:52.846Z,6.77
2022-10-17T21:44:22.634Z,6.70
2022-10-17T21:46:50.900Z,6.63
2022-10-17T21:49:20.513Z,6.03
2022-10-17T21:51:48.975Z,6.23
2022-10-17T21:54:18.298Z,5.73
2022-10-17T21:56:47.568Z,5.27
2022-10-17T21:59:15.519Z,5.97
2022-10-17T22:01:45.188Z,5.93
2022-10-17T22:04:15.438Z,6.07
2022-10-17T22:06:46.163Z,5.70
2022-10-17T22:09:16.970Z,5.20
2022-10-17T22:11:48.460Z,5.50
2022-10-17T22:14:17.892Z,5.10
2022-10-17T22:16:46.810Z,4.97
2022-10-17T22:19:16.601Z,4.97
2022-10-17T22:21:44.564Z,6.50
2022-10-17T22:24:14.795Z,5.07
2022-10-17T22:26:44.450Z,4.97
2022-10-17T22:29:14.292Z,6.00
2022-10-17T22:31:42.329Z,4.90
2022-10-17T22:34:12.797Z,5.70
2022-10-17T22:36:40.939Z,5.20
2022-10-17T22:39:09.288Z,5.43
2022-10-17T22:41:37.490Z,5.17
2022-10-17T22:44:06.058Z,5.30
2022-10-17T22:46:35.693Z,5.47
2022-10-17T22:49:03.709Z,5.60
2022-10-17T22:51:31.853Z,5.77
2022-10-17T22:53:59.817Z,5.73
2022-10-17T22:56:27.740Z,6.10
2022-10-17T22:58:55.739Z,5.83
2022-10-17T23:01:25.511Z,5.23
2022-10-17T23:03:54.870Z,5.30
2022-10-17T23:06:23.620Z,5.63
2022-10-17T23:08:52.209Z,5.43
2022-10-17T23:11:20.771Z,5.17
2022-10-17T23:13:48.930Z,5.70
2022-10-17T23:16:16.949Z,5.80
2022-10-17T23:18:44.928Z,5.70
2022-10-17T23:21:14.342Z,5.60
2022-10-17T23:23:42.420Z,5.70
2022-10-17T23:26:12.280Z,5.30
2022-10-17T23:28:40.911Z,5.10
2022-10-17T23:31:13.761Z,5.47
2022-10-17T23:33:42.102Z,5.20
2022-10-17T23:36:11.356Z,4.80
2022-10-17T23:38:40.991Z,5.97
2022-10-17T23:41:09.410Z,5.40
2022-10-17T23:43:37.473Z,5.60
2022-10-17T23:46:07.064Z,5.67
2022-10-17T23:48:35.440Z,4.97
2022-10-17T23:51:03.420Z,5.60
2022-10-17T23:53:31.742Z,5.17
2022-10-17T23:56:01.088Z,5.67
2022-10-17T23:58:29.088Z,5.30
